Pilot Mound, Iowa
Current Conditions -  °F | °C
As of 4:15 AM on Saturday 20 Dec 2014 (Local Time) from KBNW Reporting Station
Overcast Overcast  
Wind Chill: 25°   Ceiling: 800
Heat Index: 30°   Visibility: 9mi
Dew Point: 30°   Wind: 5mph
Humidity: 100%   Direction: 210°SSW
Pressure: 30.14"   Gusts: NA
Location:  42.16°N, 94.02°W
Report Text: KBNW 201015Z AUTO 21004KT 9SM OVC008 M01/M01 A3014 RMK AO2
Loading
Personal Weather Stations






























Interactive Weather Map New forecast layout! Learn more

10-Day Weather Forecast

Advertisements
Track Severe Weather on mobile